sensor_id;sensor_type;location;lat;lon;timestamp;P1;durP1;ratioP1;P2;durP2;ratioP2
44197;SDS011;30157;55.512;37.764;2022-08-19T00:01:45;7.65;;;4.28;;
44197;SDS011;30157;55.512;37.764;2022-08-19T00:04:14;8.57;;;3.75;;
44197;SDS011;30157;55.512;37.764;2022-08-19T00:06:44;5.32;;;3.22;;
44197;SDS011;30157;55.512;37.764;2022-08-19T00:09:12;7.90;;;3.88;;
44197;SDS011;30157;55.512;37.764;2022-08-19T00:11:40;6.45;;;3.58;;
44197;SDS011;30157;55.512;37.764;2022-08-19T00:14:06;7.07;;;3.80;;
44197;SDS011;30157;55.512;37.764;2022-08-19T00:16:35;5.60;;;3.78;;
44197;SDS011;30157;55.512;37.764;2022-08-19T00:19:02;7.18;;;4.22;;
44197;SDS011;30157;55.512;37.764;2022-08-19T00:21:28;7.30;;;4.47;;
44197;SDS011;30157;55.512;37.764;2022-08-19T00:23:54;6.13;;;4.43;;
44197;SDS011;30157;55.512;37.764;2022-08-19T00:26:24;9.15;;;3.80;;
44197;SDS011;30157;55.512;37.764;2022-08-19T00:28:51;10.20;;;5.18;;
44197;SDS011;30157;55.512;37.764;2022-08-19T00:31:17;7.85;;;4.43;;
44197;SDS011;30157;55.512;37.764;2022-08-19T00:33:43;7.65;;;4.40;;
44197;SDS011;30157;55.512;37.764;2022-08-19T00:36:09;8.23;;;4.40;;
44197;SDS011;30157;55.512;37.764;2022-08-19T00:38:36;6.55;;;4.35;;
44197;SDS011;30157;55.512;37.764;2022-08-19T00:41:05;7.07;;;4.75;;
44197;SDS011;30157;55.512;37.764;2022-08-19T00:43:31;7.05;;;4.70;;
44197;SDS011;30157;55.512;37.764;2022-08-19T00:45:57;5.88;;;4.40;;
44197;SDS011;30157;55.512;37.764;2022-08-19T00:48:24;6.95;;;4.90;;
44197;SDS011;30157;55.512;37.764;2022-08-19T00:50:50;9.20;;;4.60;;
44197;SDS011;30157;55.512;37.764;2022-08-19T00:53:19;8.68;;;3.92;;
44197;SDS011;30157;55.512;37.764;2022-08-19T00:55:48;11.13;;;4.85;;
44197;SDS011;30157;55.512;37.764;2022-08-19T00:58:18;8.68;;;4.10;;
44197;SDS011;30157;55.512;37.764;2022-08-19T01:00:46;7.15;;;4.13;;
44197;SDS011;30157;55.512;37.764;2022-08-19T01:03:15;7.95;;;3.85;;
44197;SDS011;30157;55.512;37.764;2022-08-19T01:05:43;5.72;;;4.05;;
44197;SDS011;30157;55.512;37.764;2022-08-19T01:08:10;9.05;;;5.53;;
44197;SDS011;30157;55.512;37.764;2022-08-19T01:10:56;5.50;;;3.42;;
44197;SDS011;30157;55.512;37.764;2022-08-19T01:13:26;5.82;;;3.70;;
44197;SDS011;30157;55.512;37.764;2022-08-19T01:15:56;6.10;;;4.00;;
44197;SDS011;30157;55.512;37.764;2022-08-19T01:18:25;6.22;;;3.70;;
44197;SDS011;30157;55.512;37.764;2022-08-19T01:20:53;5.63;;;3.67;;
44197;SDS011;30157;55.512;37.764;2022-08-19T01:23:21;5.90;;;4.07;;
44197;SDS011;30157;55.512;37.764;2022-08-19T01:26:07;5.40;;;3.40;;
44197;SDS011;30157;55.512;37.764;2022-08-19T01:28:36;7.60;;;3.72;;
44197;SDS011;30157;55.512;37.764;2022-08-19T01:31:05;6.13;;;3.70;;
44197;SDS011;30157;55.512;37.764;2022-08-19T01:33:32;5.10;;;3.70;;
44197;SDS011;30157;55.512;37.764;2022-08-19T01:36:06;6.18;;;3.67;;
44197;SDS011;30157;55.512;37.764;2022-08-19T01:38:36;4.65;;;3.20;;
44197;SDS011;30157;55.512;37.764;2022-08-19T01:41:04;5.45;;;3.22;;
44197;SDS011;30157;55.512;37.764;2022-08-19T01:43:30;5.65;;;3.45;;
44197;SDS011;30157;55.512;37.764;2022-08-19T01:45:55;5.53;;;3.45;;
44197;SDS011;30157;55.512;37.764;2022-08-19T01:48:21;5.03;;;3.00;;
44197;SDS011;30157;55.512;37.764;2022-08-19T01:50:48;6.25;;;3.47;;
44197;SDS011;30157;55.512;37.764;2022-08-19T01:53:16;6.15;;;3.53;;
44197;SDS011;30157;55.512;37.764;2022-08-19T01:55:44;5.35;;;3.22;;
44197;SDS011;30157;55.512;37.764;2022-08-19T01:58:20;6.43;;;3.70;;
44197;SDS011;30157;55.512;37.764;2022-08-19T02:00:50;5.78;;;3.40;;
44197;SDS011;30157;55.512;37.764;2022-08-19T02:03:16;4.93;;;3.35;;
44197;SDS011;30157;55.512;37.764;2022-08-19T02:05:42;5.07;;;3.30;;
44197;SDS011;30157;55.512;37.764;2022-08-19T02:08:09;5.93;;;3.53;;
44197;SDS011;30157;55.512;37.764;2022-08-19T02:10:38;4.50;;;3.00;;
44197;SDS011;30157;55.512;37.764;2022-08-19T02:13:09;4.40;;;3.13;;
44197;SDS011;30157;55.512;37.764;2022-08-19T02:15:56;5.80;;;2.90;;
44197;SDS011;30157;55.512;37.764;2022-08-19T02:18:23;5.50;;;3.10;;
44197;SDS011;30157;55.512;37.764;2022-08-19T02:20:49;5.22;;;3.30;;
44197;SDS011;30157;55.512;37.764;2022-08-19T02:23:15;5.60;;;3.10;;
44197;SDS011;30157;55.512;37.764;2022-08-19T02:25:45;4.15;;;3.65;;
44197;SDS011;30157;55.512;37.764;2022-08-19T02:28:13;4.75;;;2.70;;
44197;SDS011;30157;55.512;37.764;2022-08-19T02:30:40;4.30;;;2.65;;
44197;SDS011;30157;55.512;37.764;2022-08-19T02:33:06;5.05;;;2.72;;
44197;SDS011;30157;55.512;37.764;2022-08-19T02:35:32;4.47;;;3.00;;
44197;SDS011;30157;55.512;37.764;2022-08-19T02:37:58;3.70;;;2.70;;
44197;SDS011;30157;55.512;37.764;2022-08-19T02:40:47;6.28;;;2.80;;
44197;SDS011;30157;55.512;37.764;2022-08-19T02:43:16;4.05;;;2.75;;
44197;SDS011;30157;55.512;37.764;2022-08-19T02:45:43;5.07;;;3.00;;
44197;SDS011;30157;55.512;37.764;2022-08-19T02:48:08;6.50;;;3.13;;
44197;SDS011;30157;55.512;37.764;2022-08-19T02:50:37;6.07;;;3.20;;
44197;SDS011;30157;55.512;37.764;2022-08-19T02:53:04;5.97;;;3.10;;
44197;SDS011;30157;55.512;37.764;2022-08-19T02:55:30;5.00;;;3.40;;
44197;SDS011;30157;55.512;37.764;2022-08-19T02:57:56;4.57;;;2.78;;
44197;SDS011;30157;55.512;37.764;2022-08-19T03:00:22;6.38;;;3.30;;
44197;SDS011;30157;55.512;37.764;2022-08-19T03:02:49;6.43;;;2.85;;
44197;SDS011;30157;55.512;37.764;2022-08-19T03:05:15;3.65;;;2.95;;
44197;SDS011;30157;55.512;37.764;2022-08-19T03:07:41;4.82;;;2.97;;
44197;SDS011;30157;55.512;37.764;2022-08-19T03:10:07;4.25;;;3.00;;
44197;SDS011;30157;55.512;37.764;2022-08-19T03:12:37;4.13;;;2.97;;
44197;SDS011;30157;55.512;37.764;2022-08-19T03:15:04;4.40;;;3.15;;
44197;SDS011;30157;55.512;37.764;2022-08-19T03:17:32;5.70;;;2.85;;
44197;SDS011;30157;55.512;37.764;2022-08-19T03:19:59;7.20;;;3.08;;
44197;SDS011;30157;55.512;37.764;2022-08-19T03:22:25;5.55;;;3.15;;
44197;SDS011;30157;55.512;37.764;2022-08-19T03:24:51;4.63;;;3.25;;
44197;SDS011;30157;55.512;37.764;2022-08-19T03:27:16;4.93;;;3.00;;
44197;SDS011;30157;55.512;37.764;2022-08-19T03:29:43;5.15;;;3.53;;
44197;SDS011;30157;55.512;37.764;2022-08-19T03:32:09;4.97;;;3.00;;
44197;SDS011;30157;55.512;37.764;2022-08-19T03:34:36;7.93;;;3.05;;
44197;SDS011;30157;55.512;37.764;2022-08-19T03:37:07;4.18;;;3.15;;
44197;SDS011;30157;55.512;37.764;2022-08-19T03:39:36;7.20;;;3.30;;
44197;SDS011;30157;55.512;37.764;2022-08-19T03:42:02;5.97;;;3.00;;
44197;SDS011;30157;55.512;37.764;2022-08-19T03:44:29;5.22;;;3.60;;
44197;SDS011;30157;55.512;37.764;2022-08-19T03:46:59;5.78;;;3.20;;
44197;SDS011;30157;55.512;37.764;2022-08-19T03:49:26;7.97;;;4.25;;
44197;SDS011;30157;55.512;37.764;2022-08-19T03:51:56;6.00;;;3.30;;
44197;SDS011;30157;55.512;37.764;2022-08-19T03:54:25;6.50;;;3.10;;
44197;SDS011;30157;55.512;37.764;2022-08-19T03:56:53;4.65;;;3.22;;
44197;SDS011;30157;55.512;37.764;2022-08-19T03:59:25;5.03;;;2.90;;
44197;SDS011;30157;55.512;37.764;2022-08-19T04:01:54;5.97;;;3.03;;
44197;SDS011;30157;55.512;37.764;2022-08-19T04:04:24;3.10;;;2.60;;
44197;SDS011;30157;55.512;37.764;2022-08-19T04:06:50;8.43;;;3.35;;
44197;SDS011;30157;55.512;37.764;2022-08-19T04:09:19;5.13;;;3.53;;
44197;SDS011;30157;55.512;37.764;2022-08-19T04:11:48;5.45;;;3.55;;
44197;SDS011;30157;55.512;37.764;2022-08-19T04:14:19;5.03;;;3.85;;
44197;SDS011;30157;55.512;37.764;2022-08-19T04:16:49;5.95;;;3.28;;
44197;SDS011;30157;55.512;37.764;2022-08-19T04:19:16;6.65;;;3.20;;
44197;SDS011;30157;55.512;37.764;2022-08-19T04:21:43;9.45;;;3.60;;
44197;SDS011;30157;55.512;37.764;2022-08-19T04:24:11;4.25;;;2.80;;
44197;SDS011;30157;55.512;37.764;2022-08-19T04:26:37;5.95;;;3.58;;
44197;SDS011;30157;55.512;37.764;2022-08-19T04:29:08;6.78;;;3.08;;
44197;SDS011;30157;55.512;37.764;2022-08-19T04:31:42;3.72;;;2.97;;
44197;SDS011;30157;55.512;37.764;2022-08-19T04:34:11;4.15;;;3.03;;
44197;SDS011;30157;55.512;37.764;2022-08-19T04:36:39;5.82;;;3.47;;
44197;SDS011;30157;55.512;37.764;2022-08-19T04:39:07;4.88;;;2.92;;
44197;SDS011;30157;55.512;37.764;2022-08-19T04:41:35;4.70;;;3.30;;
44197;SDS011;30157;55.512;37.764;2022-08-19T04:44:19;7.63;;;3.03;;
44197;SDS011;30157;55.512;37.764;2022-08-19T04:46:49;5.25;;;3.05;;
44197;SDS011;30157;55.512;37.764;2022-08-19T04:49:15;6.15;;;3.08;;
44197;SDS011;30157;55.512;37.764;2022-08-19T04:51:43;4.95;;;3.03;;
44197;SDS011;30157;55.512;37.764;2022-08-19T04:54:10;4.30;;;2.90;;
44197;SDS011;30157;55.512;37.764;2022-08-19T04:56:36;6.50;;;3.67;;
44197;SDS011;30157;55.512;37.764;2022-08-19T04:59:04;4.95;;;3.53;;
44197;SDS011;30157;55.512;37.764;2022-08-19T05:01:31;5.18;;;3.22;;
44197;SDS011;30157;55.512;37.764;2022-08-19T05:03:58;4.32;;;3.00;;
44197;SDS011;30157;55.512;37.764;2022-08-19T05:06:25;6.68;;;3.13;;
44197;SDS011;30157;55.512;37.764;2022-08-19T05:08:52;5.38;;;3.10;;
44197;SDS011;30157;55.512;37.764;2022-08-19T05:11:19;4.03;;;3.10;;
44197;SDS011;30157;55.512;37.764;2022-08-19T05:13:47;3.90;;;2.80;;
44197;SDS011;30157;55.512;37.764;2022-08-19T05:16:14;6.75;;;4.32;;
44197;SDS011;30157;55.512;37.764;2022-08-19T05:18:42;6.93;;;3.13;;
44197;SDS011;30157;55.512;37.764;2022-08-19T05:21:28;3.20;;;2.55;;
44197;SDS011;30157;55.512;37.764;2022-08-19T05:24:12;3.25;;;2.70;;
44197;SDS011;30157;55.512;37.764;2022-08-19T05:26:40;14.95;;;9.73;;
44197;SDS011;30157;55.512;37.764;2022-08-19T05:29:08;6.35;;;3.10;;
44197;SDS011;30157;55.512;37.764;2022-08-19T05:31:34;4.50;;;2.63;;
44197;SDS011;30157;55.512;37.764;2022-08-19T05:34:01;5.80;;;3.28;;
44197;SDS011;30157;55.512;37.764;2022-08-19T05:36:29;4.97;;;3.28;;
44197;SDS011;30157;55.512;37.764;2022-08-19T05:39:01;3.95;;;2.88;;
44197;SDS011;30157;55.512;37.764;2022-08-19T05:41:27;5.78;;;3.45;;
44197;SDS011;30157;55.512;37.764;2022-08-19T05:44:00;6.15;;;2.97;;
44197;SDS011;30157;55.512;37.764;2022-08-19T05:46:28;5.15;;;3.10;;
44197;SDS011;30157;55.512;37.764;2022-08-19T05:48:54;6.90;;;3.33;;
44197;SDS011;30157;55.512;37.764;2022-08-19T05:51:22;5.63;;;3.33;;
44197;SDS011;30157;55.512;37.764;2022-08-19T05:53:49;7.18;;;3.60;;
44197;SDS011;30157;55.512;37.764;2022-08-19T05:56:16;6.50;;;3.10;;
44197;SDS011;30157;55.512;37.764;2022-08-19T05:58:43;4.13;;;2.95;;
44197;SDS011;30157;55.512;37.764;2022-08-19T06:01:11;4.13;;;3.33;;
44197;SDS011;30157;55.512;37.764;2022-08-19T06:03:39;7.03;;;3.20;;
44197;SDS011;30157;55.512;37.764;2022-08-19T06:06:06;5.28;;;3.22;;
44197;SDS011;30157;55.512;37.764;2022-08-19T06:08:34;4.32;;;2.92;;
44197;SDS011;30157;55.512;37.764;2022-08-19T06:11:15;4.25;;;3.15;;
44197;SDS011;30157;55.512;37.764;2022-08-19T06:13:42;5.65;;;3.08;;
44197;SDS011;30157;55.512;37.764;2022-08-19T06:16:14;6.50;;;3.00;;
44197;SDS011;30157;55.512;37.764;2022-08-19T06:18:46;4.32;;;3.15;;
44197;SDS011;30157;55.512;37.764;2022-08-19T06:21:14;5.43;;;3.28;;
44197;SDS011;30157;55.512;37.764;2022-08-19T06:23:39;10.85;;;3.65;;
44197;SDS011;30157;55.512;37.764;2022-08-19T06:26:06;4.38;;;2.97;;
44197;SDS011;30157;55.512;37.764;2022-08-19T06:28:33;4.88;;;3.10;;
44197;SDS011;30157;55.512;37.764;2022-08-19T06:30:58;6.70;;;3.20;;
44197;SDS011;30157;55.512;37.764;2022-08-19T06:33:26;6.65;;;3.58;;
44197;SDS011;30157;55.512;37.764;2022-08-19T06:35:52;7.78;;;3.80;;
44197;SDS011;30157;55.512;37.764;2022-08-19T06:38:18;6.50;;;3.28;;
44197;SDS011;30157;55.512;37.764;2022-08-19T06:40:45;3.58;;;3.20;;
44197;SDS011;30157;55.512;37.764;2022-08-19T06:43:11;4.70;;;3.20;;
44197;SDS011;30157;55.512;37.764;2022-08-19T06:45:37;5.13;;;3.10;;
44197;SDS011;30157;55.512;37.764;2022-08-19T06:48:03;6.65;;;3.30;;
44197;SDS011;30157;55.512;37.764;2022-08-19T06:50:29;9.43;;;3.70;;
44197;SDS011;30157;55.512;37.764;2022-08-19T06:52:57;6.95;;;3.38;;
44197;SDS011;30157;55.512;37.764;2022-08-19T06:55:25;9.25;;;3.60;;
44197;SDS011;30157;55.512;37.764;2022-08-19T06:57:54;4.72;;;3.20;;
44197;SDS011;30157;55.512;37.764;2022-08-19T07:00:19;6.25;;;3.50;;
44197;SDS011;30157;55.512;37.764;2022-08-19T07:02:45;4.35;;;3.60;;
44197;SDS011;30157;55.512;37.764;2022-08-19T07:05:11;6.43;;;3.90;;
44197;SDS011;30157;55.512;37.764;2022-08-19T07:07:36;5.32;;;3.28;;
44197;SDS011;30157;55.512;37.764;2022-08-19T07:10:02;6.18;;;4.03;;
44197;SDS011;30157;55.512;37.764;2022-08-19T07:12:30;4.95;;;3.70;;
44197;SDS011;30157;55.512;37.764;2022-08-19T07:15:00;4.40;;;3.55;;
44197;SDS011;30157;55.512;37.764;2022-08-19T07:17:26;4.25;;;3.70;;
44197;SDS011;30157;55.512;37.764;2022-08-19T07:19:51;7.60;;;4.32;;
44197;SDS011;30157;55.512;37.764;2022-08-19T07:22:18;11.88;;;4.07;;
44197;SDS011;30157;55.512;37.764;2022-08-19T07:24:45;4.78;;;3.88;;
44197;SDS011;30157;55.512;37.764;2022-08-19T07:27:13;6.47;;;3.92;;
44197;SDS011;30157;55.512;37.764;2022-08-19T07:29:39;5.30;;;4.03;;
44197;SDS011;30157;55.512;37.764;2022-08-19T07:32:05;4.68;;;3.72;;
44197;SDS011;30157;55.512;37.764;2022-08-19T07:34:32;4.95;;;3.55;;
44197;SDS011;30157;55.512;37.764;2022-08-19T07:37:02;5.07;;;3.55;;
44197;SDS011;30157;55.512;37.764;2022-08-19T07:39:33;5.57;;;3.38;;
44197;SDS011;30157;55.512;37.764;2022-08-19T07:42:00;6.63;;;3.58;;
44197;SDS011;30157;55.512;37.764;2022-08-19T07:44:31;8.02;;;3.83;;
44197;SDS011;30157;55.512;37.764;2022-08-19T07:46:59;5.65;;;3.67;;
44197;SDS011;30157;55.512;37.764;2022-08-19T07:49:26;6.70;;;3.50;;
44197;SDS011;30157;55.512;37.764;2022-08-19T07:51:54;5.28;;;3.60;;
44197;SDS011;30157;55.512;37.764;2022-08-19T07:54:22;4.80;;;3.08;;
44197;SDS011;30157;55.512;37.764;2022-08-19T07:56:50;3.55;;;3.25;;
44197;SDS011;30157;55.512;37.764;2022-08-19T07:59:16;3.88;;;3.40;;
44197;SDS011;30157;55.512;37.764;2022-08-19T08:01:43;5.13;;;3.60;;
44197;SDS011;30157;55.512;37.764;2022-08-19T08:04:10;8.05;;;3.63;;
44197;SDS011;30157;55.512;37.764;2022-08-19T08:06:54;4.32;;;3.30;;
44197;SDS011;30157;55.512;37.764;2022-08-19T08:09:40;3.75;;;3.33;;
44197;SDS011;30157;55.512;37.764;2022-08-19T08:14:44;4.10;;;3.00;;
44197;SDS011;30157;55.512;37.764;2022-08-19T08:17:14;8.02;;;3.13;;
44197;SDS011;30157;55.512;37.764;2022-08-19T08:19:41;7.72;;;3.17;;
44197;SDS011;30157;55.512;37.764;2022-08-19T08:22:08;3.72;;;2.88;;
44197;SDS011;30157;55.512;37.764;2022-08-19T08:24:56;5.40;;;3.10;;
44197;SDS011;30157;55.512;37.764;2022-08-19T08:27:25;5.78;;;3.08;;
44197;SDS011;30157;55.512;37.764;2022-08-19T08:29:54;4.30;;;2.88;;
44197;SDS011;30157;55.512;37.764;2022-08-19T08:32:20;4.43;;;3.30;;
44197;SDS011;30157;55.512;37.764;2022-08-19T08:34:45;3.47;;;3.10;;
44197;SDS011;30157;55.512;37.764;2022-08-19T08:37:11;4.25;;;2.78;;
44197;SDS011;30157;55.512;37.764;2022-08-19T08:39:37;2.95;;;2.63;;
44197;SDS011;30157;55.512;37.764;2022-08-19T08:44:42;4.53;;;2.85;;
44197;SDS011;30157;55.512;37.764;2022-08-19T08:47:36;6.68;;;3.40;;
44197;SDS011;30157;55.512;37.764;2022-08-19T08:50:25;5.28;;;2.75;;
44197;SDS011;30157;55.512;37.764;2022-08-19T08:53:00;3.95;;;2.80;;
44197;SDS011;30157;55.512;37.764;2022-08-19T08:55:33;5.13;;;2.83;;
44197;SDS011;30157;55.512;37.764;2022-08-19T08:58:03;7.50;;;3.55;;
44197;SDS011;30157;55.512;37.764;2022-08-19T09:00:33;4.00;;;2.88;;
44197;SDS011;30157;55.512;37.764;2022-08-19T09:03:05;5.30;;;3.15;;
44197;SDS011;30157;55.512;37.764;2022-08-19T09:11:03;7.28;;;3.17;;
44197;SDS011;30157;55.512;37.764;2022-08-19T09:14:00;3.50;;;3.20;;
44197;SDS011;30157;55.512;37.764;2022-08-19T09:16:30;5.60;;;3.10;;
44197;SDS011;30157;55.512;37.764;2022-08-19T09:18:58;4.20;;;3.40;;
44197;SDS011;30157;55.512;37.764;2022-08-19T09:21:28;3.30;;;2.83;;
44197;SDS011;30157;55.512;37.764;2022-08-19T09:23:54;3.30;;;3.00;;
44197;SDS011;30157;55.512;37.764;2022-08-19T09:26:23;3.13;;;2.83;;
44197;SDS011;30157;55.512;37.764;2022-08-19T09:28:50;3.65;;;2.80;;
44197;SDS011;30157;55.512;37.764;2022-08-19T09:31:19;6.03;;;3.00;;
44197;SDS011;30157;55.512;37.764;2022-08-19T09:33:47;5.40;;;3.17;;
44197;SDS011;30157;55.512;37.764;2022-08-19T09:36:15;8.18;;;3.20;;
44197;SDS011;30157;55.512;37.764;2022-08-19T09:38:43;4.80;;;3.00;;
44197;SDS011;30157;55.512;37.764;2022-08-19T09:41:11;5.70;;;3.25;;
44197;SDS011;30157;55.512;37.764;2022-08-19T09:43:40;6.15;;;2.88;;
44197;SDS011;30157;55.512;37.764;2022-08-19T09:46:08;3.78;;;2.70;;
44197;SDS011;30157;55.512;37.764;2022-08-19T09:48:37;7.35;;;2.83;;
44197;SDS011;30157;55.512;37.764;2022-08-19T09:51:05;6.43;;;3.03;;
44197;SDS011;30157;55.512;37.764;2022-08-19T09:53:33;5.55;;;2.70;;
44197;SDS011;30157;55.512;37.764;2022-08-19T09:56:00;4.18;;;2.72;;
44197;SDS011;30157;55.512;37.764;2022-08-19T09:58:26;4.88;;;3.10;;
44197;SDS011;30157;55.512;37.764;2022-08-19T10:00:57;4.35;;;2.70;;
44197;SDS011;30157;55.512;37.764;2022-08-19T10:03:24;7.20;;;2.97;;
44197;SDS011;30157;55.512;37.764;2022-08-19T10:05:50;6.57;;;3.17;;
44197;SDS011;30157;55.512;37.764;2022-08-19T10:08:18;4.75;;;3.13;;
44197;SDS011;30157;55.512;37.764;2022-08-19T10:10:47;4.82;;;3.15;;
44197;SDS011;30157;55.512;37.764;2022-08-19T10:13:15;3.50;;;2.92;;
44197;SDS011;30157;55.512;37.764;2022-08-19T10:15:45;4.43;;;2.72;;
44197;SDS011;30157;55.512;37.764;2022-08-19T10:18:11;5.20;;;3.00;;
44197;SDS011;30157;55.512;37.764;2022-08-19T10:20:37;5.38;;;3.22;;
44197;SDS011;30157;55.512;37.764;2022-08-19T10:23:03;2.97;;;2.67;;
44197;SDS011;30157;55.512;37.764;2022-08-19T10:25:28;9.30;;;3.25;;
44197;SDS011;30157;55.512;37.764;2022-08-19T10:27:54;3.35;;;2.83;;
44197;SDS011;30157;55.512;37.764;2022-08-19T10:30:20;3.22;;;2.92;;
44197;SDS011;30157;55.512;37.764;2022-08-19T10:32:46;4.25;;;2.95;;
44197;SDS011;30157;55.512;37.764;2022-08-19T10:35:13;3.72;;;2.70;;
44197;SDS011;30157;55.512;37.764;2022-08-19T10:37:39;3.85;;;2.90;;
44197;SDS011;30157;55.512;37.764;2022-08-19T10:40:06;3.38;;;2.80;;
44197;SDS011;30157;55.512;37.764;2022-08-19T10:42:36;3.20;;;2.80;;
44197;SDS011;30157;55.512;37.764;2022-08-19T10:45:02;6.50;;;2.90;;
44197;SDS011;30157;55.512;37.764;2022-08-19T10:47:31;5.80;;;2.75;;
44197;SDS011;30157;55.512;37.764;2022-08-19T10:49:59;5.28;;;2.90;;
44197;SDS011;30157;55.512;37.764;2022-08-19T10:52:45;3.20;;;2.60;;
44197;SDS011;30157;55.512;37.764;2022-08-19T10:55:14;8.05;;;2.60;;
44197;SDS011;30157;55.512;37.764;2022-08-19T10:57:59;4.65;;;2.20;;
44197;SDS011;30157;55.512;37.764;2022-08-19T11:00:25;3.03;;;2.30;;
44197;SDS011;30157;55.512;37.764;2022-08-19T11:02:51;4.70;;;2.40;;
44197;SDS011;30157;55.512;37.764;2022-08-19T11:05:17;5.07;;;2.55;;
44197;SDS011;30157;55.512;37.764;2022-08-19T11:07:44;3.58;;;2.50;;
44197;SDS011;30157;55.512;37.764;2022-08-19T11:10:11;3.53;;;2.85;;
44197;SDS011;30157;55.512;37.764;2022-08-19T11:12:41;4.75;;;3.00;;
44197;SDS011;30157;55.512;37.764;2022-08-19T11:15:08;5.22;;;3.08;;
44197;SDS011;30157;55.512;37.764;2022-08-19T11:17:39;3.88;;;2.92;;
44197;SDS011;30157;55.512;37.764;2022-08-19T11:20:11;3.78;;;2.70;;
44197;SDS011;30157;55.512;37.764;2022-08-19T11:22:41;6.47;;;2.78;;
44197;SDS011;30157;55.512;37.764;2022-08-19T11:25:08;4.38;;;2.78;;
44197;SDS011;30157;55.512;37.764;2022-08-19T11:27:38;4.72;;;3.08;;
44197;SDS011;30157;55.512;37.764;2022-08-19T11:30:08;5.47;;;3.05;;
44197;SDS011;30157;55.512;37.764;2022-08-19T11:32:37;5.25;;;2.97;;
44197;SDS011;30157;55.512;37.764;2022-08-19T11:35:02;5.15;;;2.90;;
44197;SDS011;30157;55.512;37.764;2022-08-19T11:37:29;4.13;;;3.17;;
44197;SDS011;30157;55.512;37.764;2022-08-19T11:39:54;4.18;;;3.15;;
44197;SDS011;30157;55.512;37.764;2022-08-19T11:42:20;6.35;;;3.05;;
44197;SDS011;30157;55.512;37.764;2022-08-19T11:45:05;3.97;;;3.10;;
44197;SDS011;30157;55.512;37.764;2022-08-19T11:47:31;5.97;;;2.90;;
44197;SDS011;30157;55.512;37.764;2022-08-19T11:49:56;3.47;;;3.00;;
44197;SDS011;30157;55.512;37.764;2022-08-19T11:52:24;4.78;;;2.67;;
44197;SDS011;30157;55.512;37.764;2022-08-19T11:54:50;3.53;;;2.75;;
44197;SDS011;30157;55.512;37.764;2022-08-19T11:57:16;3.85;;;2.90;;
44197;SDS011;30157;55.512;37.764;2022-08-19T11:59:47;4.53;;;2.70;;
44197;SDS011;30157;55.512;37.764;2022-08-19T12:02:14;4.68;;;3.03;;
44197;SDS011;30157;55.512;37.764;2022-08-19T12:04:40;4.22;;;2.90;;
44197;SDS011;30157;55.512;37.764;2022-08-19T12:07:06;3.95;;;2.80;;
44197;SDS011;30157;55.512;37.764;2022-08-19T12:09:32;4.80;;;2.92;;
44197;SDS011;30157;55.512;37.764;2022-08-19T12:12:00;6.00;;;2.95;;
44197;SDS011;30157;55.512;37.764;2022-08-19T12:14:27;3.72;;;2.67;;
44197;SDS011;30157;55.512;37.764;2022-08-19T12:16:55;3.92;;;3.10;;
44197;SDS011;30157;55.512;37.764;2022-08-19T12:19:20;5.00;;;3.08;;
44197;SDS011;30157;55.512;37.764;2022-08-19T12:21:46;7.70;;;2.92;;
44197;SDS011;30157;55.512;37.764;2022-08-19T12:24:12;5.32;;;2.67;;
44197;SDS011;30157;55.512;37.764;2022-08-19T12:26:39;4.50;;;3.05;;
44197;SDS011;30157;55.512;37.764;2022-08-19T12:29:05;7.68;;;3.70;;
44197;SDS011;30157;55.512;37.764;2022-08-19T12:31:33;5.95;;;3.40;;
44197;SDS011;30157;55.512;37.764;2022-08-19T12:33:59;4.78;;;3.30;;
44197;SDS011;30157;55.512;37.764;2022-08-19T12:36:25;4.45;;;3.78;;
44197;SDS011;30157;55.512;37.764;2022-08-19T12:38:51;4.65;;;3.90;;
44197;SDS011;30157;55.512;37.764;2022-08-19T12:41:18;6.32;;;3.60;;
44197;SDS011;30157;55.512;37.764;2022-08-19T12:43:46;7.05;;;3.75;;
44197;SDS011;30157;55.512;37.764;2022-08-19T12:46:14;5.90;;;3.78;;
44197;SDS011;30157;55.512;37.764;2022-08-19T12:48:40;5.07;;;3.60;;
44197;SDS011;30157;55.512;37.764;2022-08-19T12:51:11;6.07;;;3.80;;
44197;SDS011;30157;55.512;37.764;2022-08-19T12:53:42;7.43;;;3.67;;
44197;SDS011;30157;55.512;37.764;2022-08-19T12:56:09;7.15;;;5.07;;
44197;SDS011;30157;55.512;37.764;2022-08-19T12:58:36;7.20;;;4.78;;
44197;SDS011;30157;55.512;37.764;2022-08-19T13:01:10;6.13;;;4.50;;
44197;SDS011;30157;55.512;37.764;2022-08-19T13:06:04;6.65;;;5.00;;
44197;SDS011;30157;55.512;37.764;2022-08-19T13:08:30;8.60;;;5.70;;
44197;SDS011;30157;55.512;37.764;2022-08-19T13:10:55;8.45;;;5.45;;
44197;SDS011;30157;55.512;37.764;2022-08-19T13:13:21;8.25;;;5.80;;
44197;SDS011;30157;55.512;37.764;2022-08-19T13:15:51;7.90;;;5.97;;
44197;SDS011;30157;55.512;37.764;2022-08-19T13:18:17;9.35;;;6.43;;
44197;SDS011;30157;55.512;37.764;2022-08-19T13:20:42;9.57;;;6.90;;
44197;SDS011;30157;55.512;37.764;2022-08-19T13:23:09;11.23;;;6.93;;
44197;SDS011;30157;55.512;37.764;2022-08-19T13:25:34;9.25;;;6.25;;
44197;SDS011;30157;55.512;37.764;2022-08-19T13:28:01;7.97;;;5.75;;
44197;SDS011;30157;55.512;37.764;2022-08-19T13:30:30;11.45;;;6.38;;
44197;SDS011;30157;55.512;37.764;2022-08-19T13:33:22;11.20;;;5.88;;
44197;SDS011;30157;55.512;37.764;2022-08-19T13:35:51;10.90;;;6.22;;
44197;SDS011;30157;55.512;37.764;2022-08-19T13:38:23;8.25;;;5.85;;
44197;SDS011;30157;55.512;37.764;2022-08-19T13:40:50;5.93;;;5.30;;
44197;SDS011;30157;55.512;37.764;2022-08-19T13:43:20;9.77;;;5.68;;
44197;SDS011;30157;55.512;37.764;2022-08-19T13:45:49;6.90;;;5.40;;
44197;SDS011;30157;55.512;37.764;2022-08-19T13:48:18;6.70;;;5.32;;
44197;SDS011;30157;55.512;37.764;2022-08-19T13:50:44;9.02;;;5.50;;
44197;SDS011;30157;55.512;37.764;2022-08-19T13:53:13;8.38;;;5.85;;
44197;SDS011;30157;55.512;37.764;2022-08-19T13:55:41;7.25;;;5.78;;
44197;SDS011;30157;55.512;37.764;2022-08-19T13:58:08;6.57;;;5.70;;
44197;SDS011;30157;55.512;37.764;2022-08-19T14:00:37;7.75;;;4.93;;
44197;SDS011;30157;55.512;37.764;2022-08-19T14:03:05;8.73;;;5.35;;
44197;SDS011;30157;55.512;37.764;2022-08-19T14:05:31;8.68;;;5.53;;
44197;SDS011;30157;55.512;37.764;2022-08-19T14:07:58;6.30;;;4.85;;
44197;SDS011;30157;55.512;37.764;2022-08-19T14:10:25;6.63;;;5.18;;
44197;SDS011;30157;55.512;37.764;2022-08-19T14:12:54;7.90;;;5.10;;
44197;SDS011;30157;55.512;37.764;2022-08-19T14:15:21;7.00;;;5.75;;
44197;SDS011;30157;55.512;37.764;2022-08-19T14:17:48;9.45;;;6.38;;
44197;SDS011;30157;55.512;37.764;2022-08-19T14:20:14;8.50;;;5.50;;
44197;SDS011;30157;55.512;37.764;2022-08-19T14:22:41;6.53;;;5.07;;
44197;SDS011;30157;55.512;37.764;2022-08-19T14:25:10;6.00;;;4.65;;
44197;SDS011;30157;55.512;37.764;2022-08-19T14:27:38;6.63;;;5.38;;
44197;SDS011;30157;55.512;37.764;2022-08-19T14:30:06;6.60;;;5.07;;
44197;SDS011;30157;55.512;37.764;2022-08-19T14:32:35;9.00;;;5.13;;
44197;SDS011;30157;55.512;37.764;2022-08-19T14:35:01;10.25;;;5.72;;
44197;SDS011;30157;55.512;37.764;2022-08-19T14:37:28;8.82;;;6.00;;
44197;SDS011;30157;55.512;37.764;2022-08-19T14:39:54;11.68;;;7.25;;
44197;SDS011;30157;55.512;37.764;2022-08-19T14:42:20;11.95;;;6.18;;
44197;SDS011;30157;55.512;37.764;2022-08-19T14:44:45;9.98;;;5.82;;
44197;SDS011;30157;55.512;37.764;2022-08-19T14:47:11;12.07;;;6.93;;
44197;SDS011;30157;55.512;37.764;2022-08-19T14:49:37;9.10;;;6.95;;
44197;SDS011;30157;55.512;37.764;2022-08-19T14:52:04;8.93;;;6.82;;
44197;SDS011;30157;55.512;37.764;2022-08-19T14:54:30;11.88;;;6.25;;